Impacts TAF Board INFO
FOR SITUATIONAL AWARENESS. NOT TO BE USED FOR FLIGHT PLANNING PURPOSES.
IDs:

KSFO - San Francisco Intl, CA, US

Issued at 0300 UTC 18 Dec 2017
Updated at 0507 UTC 18 Dec 2017
Potential Impact None Slight Moderate High
Time0456Z 18/06Z 18/07Z 18/08Z 18/09Z 18/10Z 18/11Z 18/12Z 18/13Z 18/14Z 18/15Z 18/16Z 18/17Z 18/18Z>>
Type OBS PRVL PRVL PRVL PRVL PRVL PRVL PRVL PRVL PRVL PRVL PRVL PRVL PRVL
VIS 10 >6 >6 >6 >6 >6 >6 >6 >6 >6 >6 >6 >6 >6
CIG -- -- -- -- -- -- -- -- -- -- -- -- -- --
Cover SCT SCT SCT SCT SCT SCT SCT SCT SCT SCT SCT SCT SCT SCT
FltCat VFR VFR VFR VFR VFR VFR VFR VFR VFR VFR VFR VFR VFR VFR
WX -- -- -- -- -- -- -- -- -- -- -- -- -- --
WDir 290 VRB VRB VRB VRB VRB VRB VRB VRB VRB VRB VRB VRB VRB
WSpd 8 3 3 3 3 3 3 3 3 3 3 3 3 3
WGst -- -- -- -- -- -- -- -- -- -- -- -- -- --

Raw TAF
KSFO 180300Z 1803/1906 VRB03KT P6SM SCT250
  FM182300 31006KT P6SM BKN250
  FM190500 VRB03KT P6SM BKN250


Raw METAR
KSFO 180456Z 29008KT 10SM SCT200 12/M02 A3009 RMK AO2 SLP188 T01171022
KSFO 180356Z 00000KT 10SM SCT200 12/M01 A3008 RMK AO2 SLP185 T01171011
KSFO 180256Z 00000KT 10SM BKN200 12/M01 A3007 RMK AO2 SLP182 T01171006 53017

METAR Board
Radar Display
Forecast Discussion

FOR SITUATIONAL AWARENESS. NOT TO BE USED FOR FLIGHT PLANNING PURPOSES.